Metar Cercanos

 

LEPA - Palma De Mallorc, Spain
Distance from station: ONO 38km
Actualización: 19/08/2017 11:00
Few Clouds
Few Clouds
 Viento del ENE
Viento: ENE 31 km/h
Temperatura: 29°C
Indice Calor: 31°C
Rocío: 20°C
Humedad: 58%
Barómetro: 1017 hPa
Clouds: Few Clouds
Visibility: 10 km
Cloud details: Few Clouds 762 m
2017/08/19 09:00 LEPA 190900Z 06017KT 030V090 9999 FEW025 29/20 Q1017 NOSIG
LEMH - Mahon/Menorca Is, Spain
Distance from station: ENE 105km
Actualización: 19/08/2017 11:00
Despejado
Despejado
 Viento del NE
Viento: NE 35 km/h
Temperatura: 26°C
Rocío: 19°C
Humedad: 65%
Barómetro: 1018 hPa
Resumen: Despejado
Visibility: greater than 10 km
2017/08/19 09:00 LEMH 190900Z 04019KT CAVOK 26/19 Q1018
 
LEIB - Ibiza/Es Codola, Spain
Distance from station: OSO 165km
Actualización: 19/08/2017 11:00
Parcialmente nuboso
Parcialmente nuboso
 Viento del ENE
Viento: ENE 22 km/h
Temperatura: 28°C
Indice Calor: 31°C
Rocío: 23°C
Humedad: 74%
Barómetro: 1018 hPa
Clouds: Parcialmente nuboso
Visibility: 10 km
Cloud details: Parcialmente nuboso 457 m
2017/08/19 09:00 LEIB 190900Z 07012KT 9999 SCT015 28/23 Q1018 NOSIG
LEBL - Barcelona Airpor, Spain
Distance from station: NNO 225km
Actualización: 19/08/2017 11:00
Muy nuboso
Muy nuboso
 Viento del ESE
Viento: ESE 15 km/h
Temperatura: 26°C
Rocío: 21°C
Humedad: 74%
Barómetro: 1019 hPa
Clouds: Muy nuboso
Visibility: 10 km
Cloud details: Few Clouds 457 m
Parcialmente nuboso 610 m
Muy nuboso 823 m
2017/08/19 09:00 LEBL 190900Z 12008KT 9999 FEW015 SCT020 BKN027 26/21 Q1019 NOSIG
 
LEVC - Valencia (civ/Mi, Spain
Distance from station: NO 188km
Actualización: 19/08/2017 11:00
Parcialmente nuboso
Parcialmente nuboso
 Viento del ENE
Viento: ENE 20 km/h
Temperatura: 28°C
Indice Calor: 29°C
Rocío: 20°C
Humedad: 62%
Barómetro: 1019 hPa
Clouds: Parcialmente nuboso
Visibility: 10 km
Cloud details: Parcialmente nuboso 610 m
2017/08/19 09:00 LEVC 190900Z 06011KT 9999 SCT020 28/20 Q1019 NOSIG
LEGE - Gerona/Costa Bra, Spain
Distance from station: N 276km
Actualización: 19/08/2017 11:00
Few Clouds
Few Clouds
 Viento del NE
Viento: NE 11 km/h
Temperatura: 25°C
Rocío: 15°C
Humedad: 54%
Barómetro: 1019 hPa
Clouds: Few Clouds
Visibility: 10 km
Cloud details: Few Clouds 610 m
2017/08/19 09:00 LEGE 190900Z 04006KT 360V080 9999 FEW020 25/15 Q1019
 
LEAL - Alicante/El Alte, Spain
Distance from station: OSO 344km
Actualización: 19/08/2017 11:00
Muy nuboso
Muy nuboso
 Viento del E
Viento: E 17 km/h
Temperatura: 27°C
Indice Calor: 31°C
Rocío: 24°C
Humedad: 84%
Barómetro: 1018 hPa
Clouds: Muy nuboso
Visibility: 10 km
Cloud details: Few Clouds 366 m
Muy nuboso 549 m
2017/08/19 09:00 LEAL 190900Z 10009KT 080V140 9999 FEW012 BKN018 27/24 Q1018 NOSIG
LEAM - Almeria Airport, Spain
Distance from station: SSO 56km
Actualización: 19/08/2017 11:00
Few Clouds
Few Clouds
 Viento del E
Viento: E 19 km/h
Temperatura: 29°C
Indice Calor: 32°C
Rocío: 22°C
Humedad: 66%
Barómetro: 1016 hPa
Clouds: Few Clouds
Visibility: 10 km
Cloud details: Few Clouds 305 m
2017/08/19 09:00 LEAM 190900Z 10010KT 070V140 9999 FEW010 29/22 Q1016
 
LEZG - Zaragoza (mil/Ci, Spain
Distance from station: NO 431km
Actualización: 19/08/2017 11:00
Few Clouds
Few Clouds
 Viento del ONO
Viento: ONO 35 km/h
Temperatura: 24°C
Rocío: 13°C
Humedad: 50%
Barómetro: 1021 hPa
Clouds: Few Clouds
Visibility: 10 km
Cloud details: Few Clouds 1920 m
2017/08/19 09:00 LEZG 190900Z 30019KT 260V340 9999 FEW063 24/13 Q1021
LEMD - Madrid/Barajas, Spain
Distance from station: ONO 234km
Actualización: 19/08/2017 11:00
Despejado
Despejado
 Viento del NNE
Viento: NNE 11 km/h
Temperatura: 26°C
Rocío: 13°C
Humedad: 45%
Barómetro: 1020 hPa
Resumen: Despejado
Visibility: greater than 10 km
2017/08/19 09:00 LEMD 190900Z 02006KT 330V060 CAVOK 26/13 Q1020 NOSIG
 
LEGR - Granada Airport, Spain
Distance from station: OSO 62km
Actualización: 19/08/2017 11:00
Despejado
Despejado
 Viento del calm
Viento: Calma
Temperatura: 30°C
Rocío: 12°C
Humedad: 33%
Barómetro: 1018 hPa
Resumen: Despejado
Visibility: greater than 10 km
2017/08/19 09:00 LEGR 190900Z 00000KT CAVOK 30/12 Q1018
LEMG - Malaga (civ/Mil), Spain
Distance from station: OSO 227km
Actualización: 19/08/2017 11:00
Despejado
Despejado
 Viento del ESE
Viento: ESE 13 km/h
Temperatura: 27°C
Indice Calor: 29°C
Rocío: 22°C
Humedad: 74%
Barómetro: 1016 hPa
Resumen: Despejado
Visibility: greater than 10 km
2017/08/19 09:00 LEMG 190900Z 12007KT CAVOK 27/22 Q1016 NOSIG
 
LEZL - Sevilla (civ/Mil, Spain
Distance from station: S 318km
Actualización: 19/08/2017 11:00
Despejado
Despejado
 Viento del ENE
Viento: ENE 4 km/h
Temperatura: 30°C
Indice Calor: 30°C
Rocío: 16°C
Humedad: 43%
Barómetro: 1014 hPa
Resumen: Despejado
Visibility: greater than 10 km
2017/08/19 09:00 LEZL 190900Z 06002KT CAVOK 30/16 Q1014 NOSIG
LEVT - Vitoria, Spain
Distance from station: NO 226km
Actualización: 19/08/2017 11:00
Parcialmente nuboso
Parcialmente nuboso
 Viento del N
Viento: N 13 km/h
Temperatura: 19°C
Rocío: 13°C
Humedad: 68%
Barómetro: 1024 hPa
Clouds: Parcialmente nuboso
Visibility: 10 km
Cloud details: Few Clouds 549 m
Parcialmente nuboso 1219 m
2017/08/19 09:00 LEVT 190900Z 36007KT 9999 FEW018 SCT040 19/13 Q1024
 
LEBB - Bilbao/Sondica, Spain
Distance from station: NNO 235km
Actualización: 19/08/2017 11:00
Muy nuboso
Muy nuboso
 Viento del ESE
Viento: ESE 9 km/h
Temperatura: 21°C
Rocío: 17°C
Humedad: 78%
Barómetro: 1024 hPa
Clouds: Muy nuboso
Visibility: 10 km
Cloud details: Few Clouds 762 m
Parcialmente nuboso 914 m
Muy nuboso 1676 m
2017/08/19 09:00 LEBB 190900Z 12005KT 090V170 9999 FEW025 SCT030 BKN055 21/17 Q1024 NOSIG
LESO - San Sebastian/Fu, Spain
Distance from station: N 231km
Actualización: 19/08/2017 11:00
Parcialmente nuboso
Parcialmente nuboso
 Viento del ENE
Viento: ENE 11 km/h
Temperatura: 22°C
Rocío: 17°C
Humedad: 73%
Barómetro: 1024 hPa
Clouds: Parcialmente nuboso
Visibility: 10 km
Cloud details: Few Clouds 518 m
Parcialmente nuboso 1036 m
2017/08/19 09:00 LESO 190900Z 06006KT 020V090 9999 FEW017 SCT034 22/17 Q1024
 
LEVD - Valladolid(Mil/C, Spain
Distance from station: ONO 239km
Actualización: 19/08/2017 11:00
Despejado
Despejado
 Viento del NE
Viento: NE 26 km/h
Temperatura: 20°C
Rocío: 12°C
Humedad: 60%
Barómetro: 1023 hPa
Resumen: Despejado
Visibility: greater than 10 km
2017/08/19 09:00 LEVD 190900Z 05014KT CAVOK 20/12 Q1023
LESA - Salamanca (civ/M, Spain
Distance from station: ONO 349km
Actualización: 19/08/2017 11:00
Despejado
Despejado
 Viento del NNE
Viento: NNE 19 km/h
Temperatura: 21°C
Rocío: 12°C
Humedad: 57%
Barómetro: 1022 hPa
Resumen: Despejado
Visibility: greater than 10 km
2017/08/19 09:00 LESA 190900Z 03010KT 010V080 CAVOK 21/12 Q1022
 
LEXJ - Santander/Paraya, Spain
Distance from station: NNO 247km
Actualización: 19/08/2017 11:00
Muy nuboso
Muy nuboso
 Viento del ENE
Viento: ENE 15 km/h
Temperatura: 21°C
Rocío: 17°C
Humedad: 78%
Barómetro: 1024 hPa
Clouds: Muy nuboso
Visibility: 10 km
Cloud details: Parcialmente nuboso 579 m
Muy nuboso 1981 m
2017/08/19 09:00 LEXJ 190900Z 06008KT 020V110 9999 SCT019 BKN065 21/17 Q1024
LEAS - Asturias/Aviles, Spain
Distance from station: NO 214km
Actualización: 19/08/2017 11:00
Light drizzle, Muy nuboso
Light drizzle, Muy nuboso
 Viento del ENE
Viento: ENE 11 km/h
Temperatura: 19°C
Rocío: 15°C
Humedad: 78%
Barómetro: 1024 hPa
Resumen: Light Drizzle
Clouds: Muy nuboso
Visibility: 10 km
Cloud details: Few Clouds 152 m
Muy nuboso 640 m
2017/08/19 09:00 LEAS 190900Z 07006KT 360V120 9999 -DZ FEW005 BKN021 19/15 Q1024 NOSIG
 
LECO - La Coruna/Alvedr, Spain
Distance from station: ONO 222km
Actualización: 19/08/2017 11:00
Parcialmente nuboso
Parcialmente nuboso
 Viento del NE
Viento: NE 15 km/h
Temperatura: 20°C
Rocío: 14°C
Humedad: 69%
Barómetro: 1024 hPa
Clouds: Parcialmente nuboso
Visibility: 10 km
Cloud details: Parcialmente nuboso 914 m
2017/08/19 09:00 LECO 190900Z 05008KT 9999 SCT030 20/14 Q1024 NOSIG
LEVX - Vigo/Peinador, Spain
Distance from station: O 214km
Actualización: 19/08/2017 11:00
Despejado
Despejado
 Viento del NE
Viento: NE 7 km/h
Temperatura: 21°C
Rocío: 15°C
Humedad: 69%
Barómetro: 1022 hPa
Resumen: Despejado
Visibility: greater than 10 km
2017/08/19 09:00 LEVX 190900Z 04004KT 320V120 CAVOK 21/15 Q1022 NOSIG